sensor_id;sensor_type;location;lat;lon;timestamp;temperature;humidity
4749;DHT22;2388;53.582;9.962;2023-02-24T00:01:45;5.70;99.90
4749;DHT22;2388;53.582;9.962;2023-02-24T00:04:16;5.70;99.90
4749;DHT22;2388;53.582;9.962;2023-02-24T00:06:42;5.80;99.90
4749;DHT22;2388;53.582;9.962;2023-02-24T00:09:14;5.70;99.90
4749;DHT22;2388;53.582;9.962;2023-02-24T00:11:43;5.70;99.90
4749;DHT22;2388;53.582;9.962;2023-02-24T00:14:13;5.70;99.90
4749;DHT22;2388;53.582;9.962;2023-02-24T00:16:43;5.80;99.90
4749;DHT22;2388;53.582;9.962;2023-02-24T00:19:11;5.70;99.90
4749;DHT22;2388;53.582;9.962;2023-02-24T00:21:37;5.70;99.90
4749;DHT22;2388;53.582;9.962;2023-02-24T00:24:04;5.70;99.90
4749;DHT22;2388;53.582;9.962;2023-02-24T00:26:29;5.70;99.90
4749;DHT22;2388;53.582;9.962;2023-02-24T00:28:58;5.70;99.90
4749;DHT22;2388;53.582;9.962;2023-02-24T00:31:25;5.70;99.90
4749;DHT22;2388;53.582;9.962;2023-02-24T00:33:54;5.80;99.90
4749;DHT22;2388;53.582;9.962;2023-02-24T00:36:21;5.80;99.90
4749;DHT22;2388;53.582;9.962;2023-02-24T00:38:49;5.80;99.90
4749;DHT22;2388;53.582;9.962;2023-02-24T00:41:17;5.80;99.90
4749;DHT22;2388;53.582;9.962;2023-02-24T00:43:45;5.80;99.90
4749;DHT22;2388;53.582;9.962;2023-02-24T00:46:18;5.70;99.90
4749;DHT22;2388;53.582;9.962;2023-02-24T00:48:46;5.60;99.90
4749;DHT22;2388;53.582;9.962;2023-02-24T00:51:17;5.60;99.90
4749;DHT22;2388;53.582;9.962;2023-02-24T00:53:49;5.60;99.90
4749;DHT22;2388;53.582;9.962;2023-02-24T00:56:15;5.70;99.90
4749;DHT22;2388;53.582;9.962;2023-02-24T00:58:42;5.70;99.90
4749;DHT22;2388;53.582;9.962;2023-02-24T01:01:13;5.70;99.90
4749;DHT22;2388;53.582;9.962;2023-02-24T01:03:41;5.70;99.90
4749;DHT22;2388;53.582;9.962;2023-02-24T01:06:07;5.70;99.90
4749;DHT22;2388;53.582;9.962;2023-02-24T01:08:32;5.70;99.90
4749;DHT22;2388;53.582;9.962;2023-02-24T01:11:02;5.60;99.90
4749;DHT22;2388;53.582;9.962;2023-02-24T01:13:47;5.60;99.90
4749;DHT22;2388;53.582;9.962;2023-02-24T01:16:13;5.70;99.90
4749;DHT22;2388;53.582;9.962;2023-02-24T01:18:43;5.60;99.90
4749;DHT22;2388;53.582;9.962;2023-02-24T01:21:09;5.50;99.90
4749;DHT22;2388;53.582;9.962;2023-02-24T01:23:37;5.40;99.90
4749;DHT22;2388;53.582;9.962;2023-02-24T01:26:02;5.40;99.90
4749;DHT22;2388;53.582;9.962;2023-02-24T01:28:29;5.30;99.90
4749;DHT22;2388;53.582;9.962;2023-02-24T01:30:54;5.30;99.90
4749;DHT22;2388;53.582;9.962;2023-02-24T01:33:26;5.40;99.90
4749;DHT22;2388;53.582;9.962;2023-02-24T01:35:51;5.40;99.90
4749;DHT22;2388;53.582;9.962;2023-02-24T01:38:19;5.30;99.90
4749;DHT22;2388;53.582;9.962;2023-02-24T01:40:57;5.20;99.90
4749;DHT22;2388;53.582;9.962;2023-02-24T01:43:23;5.20;99.90
4749;DHT22;2388;53.582;9.962;2023-02-24T01:45:50;5.20;99.90
4749;DHT22;2388;53.582;9.962;2023-02-24T01:48:17;5.10;99.90
4749;DHT22;2388;53.582;9.962;2023-02-24T01:50:44;5.20;99.90
4749;DHT22;2388;53.582;9.962;2023-02-24T01:53:10;5.20;99.90
4749;DHT22;2388;53.582;9.962;2023-02-24T01:55:45;5.10;99.90
4749;DHT22;2388;53.582;9.962;2023-02-24T01:58:22;5.20;99.90
4749;DHT22;2388;53.582;9.962;2023-02-24T02:00:49;5.10;99.90
4749;DHT22;2388;53.582;9.962;2023-02-24T02:03:24;5.10;99.90
4749;DHT22;2388;53.582;9.962;2023-02-24T02:05:52;5.00;99.90
4749;DHT22;2388;53.582;9.962;2023-02-24T02:08:20;5.10;99.90
4749;DHT22;2388;53.582;9.962;2023-02-24T02:10:47;5.00;99.90
4749;DHT22;2388;53.582;9.962;2023-02-24T02:13:15;5.00;99.90
4749;DHT22;2388;53.582;9.962;2023-02-24T02:22:04;4.90;99.90
4749;DHT22;2388;53.582;9.962;2023-02-24T02:27:47;4.80;99.90
4749;DHT22;2388;53.582;9.962;2023-02-24T02:30:45;4.80;99.90
4749;DHT22;2388;53.582;9.962;2023-02-24T02:36:20;4.80;99.90
4749;DHT22;2388;53.582;9.962;2023-02-24T02:38:54;4.70;99.90
4749;DHT22;2388;53.582;9.962;2023-02-24T02:41:23;4.70;99.90
4749;DHT22;2388;53.582;9.962;2023-02-24T02:43:55;4.70;99.90
4749;DHT22;2388;53.582;9.962;2023-02-24T02:49:02;4.70;99.90
4749;DHT22;2388;53.582;9.962;2023-02-24T02:51:39;4.70;99.90
4749;DHT22;2388;53.582;9.962;2023-02-24T02:54:15;4.70;99.90
4749;DHT22;2388;53.582;9.962;2023-02-24T02:56:47;4.70;99.90
4749;DHT22;2388;53.582;9.962;2023-02-24T02:59:15;4.70;99.90
4749;DHT22;2388;53.582;9.962;2023-02-24T03:01:47;4.70;99.90
4749;DHT22;2388;53.582;9.962;2023-02-24T03:04:15;4.70;99.90
4749;DHT22;2388;53.582;9.962;2023-02-24T03:06:58;4.70;99.90
4749;DHT22;2388;53.582;9.962;2023-02-24T03:09:29;4.60;99.90
4749;DHT22;2388;53.582;9.962;2023-02-24T03:11:58;4.60;99.90
4749;DHT22;2388;53.582;9.962;2023-02-24T03:14:30;4.60;99.90
4749;DHT22;2388;53.582;9.962;2023-02-24T03:16:58;4.60;99.90
4749;DHT22;2388;53.582;9.962;2023-02-24T03:19:28;4.60;99.90
4749;DHT22;2388;53.582;9.962;2023-02-24T03:24:37;4.70;99.90
4749;DHT22;2388;53.582;9.962;2023-02-24T03:27:13;4.60;99.90
4749;DHT22;2388;53.582;9.962;2023-02-24T03:32:40;4.60;99.90
4749;DHT22;2388;53.582;9.962;2023-02-24T03:35:21;4.60;99.90
4749;DHT22;2388;53.582;9.962;2023-02-24T03:37:49;4.50;99.90
4749;DHT22;2388;53.582;9.962;2023-02-24T03:40:15;4.50;99.90
4749;DHT22;2388;53.582;9.962;2023-02-24T03:42:51;4.50;99.90
4749;DHT22;2388;53.582;9.962;2023-02-24T03:45:17;4.50;99.90
4749;DHT22;2388;53.582;9.962;2023-02-24T03:47:43;4.50;99.90
4749;DHT22;2388;53.582;9.962;2023-02-24T03:50:17;4.50;99.90
4749;DHT22;2388;53.582;9.962;2023-02-24T03:53:02;4.60;99.90
4749;DHT22;2388;53.582;9.962;2023-02-24T04:01:12;4.50;99.90
4749;DHT22;2388;53.582;9.962;2023-02-24T04:03:53;4.50;99.90
4749;DHT22;2388;53.582;9.962;2023-02-24T04:06:41;4.40;99.90
4749;DHT22;2388;53.582;9.962;2023-02-24T04:09:17;4.40;99.90
4749;DHT22;2388;53.582;9.962;2023-02-24T04:14:28;4.50;99.90
4749;DHT22;2388;53.582;9.962;2023-02-24T04:16:59;4.50;99.90
4749;DHT22;2388;53.582;9.962;2023-02-24T04:19:30;4.40;99.90
4749;DHT22;2388;53.582;9.962;2023-02-24T04:21:56;4.40;99.90
4749;DHT22;2388;53.582;9.962;2023-02-24T04:24:26;4.40;99.90
4749;DHT22;2388;53.582;9.962;2023-02-24T04:26:55;4.40;99.90
4749;DHT22;2388;53.582;9.962;2023-02-24T04:29:25;4.40;99.90
4749;DHT22;2388;53.582;9.962;2023-02-24T04:31:53;4.40;99.90
4749;DHT22;2388;53.582;9.962;2023-02-24T04:34:20;4.40;99.90
4749;DHT22;2388;53.582;9.962;2023-02-24T04:36:46;4.40;99.90
4749;DHT22;2388;53.582;9.962;2023-02-24T04:39:15;4.40;99.90
4749;DHT22;2388;53.582;9.962;2023-02-24T04:41:44;4.40;99.90
4749;DHT22;2388;53.582;9.962;2023-02-24T04:44:09;4.30;99.90
4749;DHT22;2388;53.582;9.962;2023-02-24T04:46:35;4.30;99.90
4749;DHT22;2388;53.582;9.962;2023-02-24T04:49:00;4.30;99.90
4749;DHT22;2388;53.582;9.962;2023-02-24T04:51:26;4.30;99.90
4749;DHT22;2388;53.582;9.962;2023-02-24T04:53:56;4.30;99.90
4749;DHT22;2388;53.582;9.962;2023-02-24T04:56:21;4.30;99.90
4749;DHT22;2388;53.582;9.962;2023-02-24T04:58:47;4.30;99.90
4749;DHT22;2388;53.582;9.962;2023-02-24T05:01:12;4.30;99.90
4749;DHT22;2388;53.582;9.962;2023-02-24T05:03:38;4.30;99.90
4749;DHT22;2388;53.582;9.962;2023-02-24T05:06:07;4.30;99.90
4749;DHT22;2388;53.582;9.962;2023-02-24T05:08:33;4.20;99.90
4749;DHT22;2388;53.582;9.962;2023-02-24T05:10:59;4.20;99.90
4749;DHT22;2388;53.582;9.962;2023-02-24T05:13:29;4.20;99.90
4749;DHT22;2388;53.582;9.962;2023-02-24T05:15:58;4.20;99.90
4749;DHT22;2388;53.582;9.962;2023-02-24T05:18:23;4.20;99.90
4749;DHT22;2388;53.582;9.962;2023-02-24T05:20:52;4.20;99.90
4749;DHT22;2388;53.582;9.962;2023-02-24T05:23:42;4.20;99.90
4749;DHT22;2388;53.582;9.962;2023-02-24T05:26:09;4.20;99.90
4749;DHT22;2388;53.582;9.962;2023-02-24T05:28:39;4.20;99.90
4749;DHT22;2388;53.582;9.962;2023-02-24T05:31:06;4.20;99.90
4749;DHT22;2388;53.582;9.962;2023-02-24T05:33:33;4.20;99.90
4749;DHT22;2388;53.582;9.962;2023-02-24T05:36:02;4.20;99.90
4749;DHT22;2388;53.582;9.962;2023-02-24T05:38:29;4.20;99.90
4749;DHT22;2388;53.582;9.962;2023-02-24T05:40:54;4.20;99.90
4749;DHT22;2388;53.582;9.962;2023-02-24T05:43:29;4.20;99.90
4749;DHT22;2388;53.582;9.962;2023-02-24T05:45:59;4.20;99.90
4749;DHT22;2388;53.582;9.962;2023-02-24T05:48:25;4.20;99.90
4749;DHT22;2388;53.582;9.962;2023-02-24T05:50:52;4.20;99.90
4749;DHT22;2388;53.582;9.962;2023-02-24T05:53:19;4.20;99.90
4749;DHT22;2388;53.582;9.962;2023-02-24T05:55:45;4.20;99.90
4749;DHT22;2388;53.582;9.962;2023-02-24T05:58:10;4.20;99.90
4749;DHT22;2388;53.582;9.962;2023-02-24T06:00:36;4.20;99.90
4749;DHT22;2388;53.582;9.962;2023-02-24T06:03:04;4.20;99.90
4749;DHT22;2388;53.582;9.962;2023-02-24T06:06:02;4.20;99.90
4749;DHT22;2388;53.582;9.962;2023-02-24T06:08:33;4.20;99.90
4749;DHT22;2388;53.582;9.962;2023-02-24T06:11:10;4.20;99.90
4749;DHT22;2388;53.582;9.962;2023-02-24T06:13:38;4.20;99.90
4749;DHT22;2388;53.582;9.962;2023-02-24T06:16:05;4.20;99.90
4749;DHT22;2388;53.582;9.962;2023-02-24T06:18:31;4.10;99.90
4749;DHT22;2388;53.582;9.962;2023-02-24T06:21:00;4.00;99.90
4749;DHT22;2388;53.582;9.962;2023-02-24T06:23:26;3.90;99.90
4749;DHT22;2388;53.582;9.962;2023-02-24T06:25:51;3.90;99.90
4749;DHT22;2388;53.582;9.962;2023-02-24T06:28:22;3.80;99.90
4749;DHT22;2388;53.582;9.962;2023-02-24T06:30:48;3.70;99.90
4749;DHT22;2388;53.582;9.962;2023-02-24T06:33:13;3.70;99.90
4749;DHT22;2388;53.582;9.962;2023-02-24T06:35:39;3.70;99.90
4749;DHT22;2388;53.582;9.962;2023-02-24T06:38:04;3.60;99.90
4749;DHT22;2388;53.582;9.962;2023-02-24T06:40:30;3.60;99.90
4749;DHT22;2388;53.582;9.962;2023-02-24T06:42:55;3.50;99.90
4749;DHT22;2388;53.582;9.962;2023-02-24T06:45:22;3.50;99.90
4749;DHT22;2388;53.582;9.962;2023-02-24T06:47:48;3.40;99.90
4749;DHT22;2388;53.582;9.962;2023-02-24T06:50:16;3.40;99.90
4749;DHT22;2388;53.582;9.962;2023-02-24T06:52:45;3.40;99.90
4749;DHT22;2388;53.582;9.962;2023-02-24T06:55:10;3.40;99.90
4749;DHT22;2388;53.582;9.962;2023-02-24T06:57:54;3.40;99.90
4749;DHT22;2388;53.582;9.962;2023-02-24T07:00:28;3.40;99.90
4749;DHT22;2388;53.582;9.962;2023-02-24T07:03:15;3.30;99.90
4749;DHT22;2388;53.582;9.962;2023-02-24T07:05:46;3.30;99.90
4749;DHT22;2388;53.582;9.962;2023-02-24T07:08:23;3.30;99.90
4749;DHT22;2388;53.582;9.962;2023-02-24T07:10:56;3.30;99.90
4749;DHT22;2388;53.582;9.962;2023-02-24T07:13:23;3.30;99.90
4749;DHT22;2388;53.582;9.962;2023-02-24T07:15:49;3.30;99.90
4749;DHT22;2388;53.582;9.962;2023-02-24T07:18:18;3.30;99.90
4749;DHT22;2388;53.582;9.962;2023-02-24T07:20:44;3.30;99.90
4749;DHT22;2388;53.582;9.962;2023-02-24T07:23:14;3.30;99.90
4749;DHT22;2388;53.582;9.962;2023-02-24T07:25:40;3.30;99.90
4749;DHT22;2388;53.582;9.962;2023-02-24T07:28:09;3.30;99.90
4749;DHT22;2388;53.582;9.962;2023-02-24T07:30:37;3.20;99.90
4749;DHT22;2388;53.582;9.962;2023-02-24T07:33:03;3.20;99.90
4749;DHT22;2388;53.582;9.962;2023-02-24T07:35:29;3.20;99.90
4749;DHT22;2388;53.582;9.962;2023-02-24T07:37:54;3.20;99.90
4749;DHT22;2388;53.582;9.962;2023-02-24T07:40:28;3.20;99.90
4749;DHT22;2388;53.582;9.962;2023-02-24T07:42:54;3.30;99.90
4749;DHT22;2388;53.582;9.962;2023-02-24T07:45:21;3.30;99.90
4749;DHT22;2388;53.582;9.962;2023-02-24T07:47:47;3.20;99.90
4749;DHT22;2388;53.582;9.962;2023-02-24T07:50:13;3.20;99.90
4749;DHT22;2388;53.582;9.962;2023-02-24T07:52:45;3.20;99.90
4749;DHT22;2388;53.582;9.962;2023-02-24T07:55:13;3.20;99.90
4749;DHT22;2388;53.582;9.962;2023-02-24T07:57:40;3.10;99.90
4749;DHT22;2388;53.582;9.962;2023-02-24T08:00:12;3.10;99.90
4749;DHT22;2388;53.582;9.962;2023-02-24T08:02:54;3.10;99.90
4749;DHT22;2388;53.582;9.962;2023-02-24T08:05:20;3.10;99.90
4749;DHT22;2388;53.582;9.962;2023-02-24T08:07:47;3.10;99.90
4749;DHT22;2388;53.582;9.962;2023-02-24T08:10:18;3.10;99.90
4749;DHT22;2388;53.582;9.962;2023-02-24T08:12:52;3.10;99.90
4749;DHT22;2388;53.582;9.962;2023-02-24T08:15:23;3.10;99.90
4749;DHT22;2388;53.582;9.962;2023-02-24T08:17:56;3.00;99.90
4749;DHT22;2388;53.582;9.962;2023-02-24T08:20:29;3.00;99.90
4749;DHT22;2388;53.582;9.962;2023-02-24T08:23:00;3.00;99.90
4749;DHT22;2388;53.582;9.962;2023-02-24T08:25:28;3.00;99.90
4749;DHT22;2388;53.582;9.962;2023-02-24T08:28:01;3.10;99.90
4749;DHT22;2388;53.582;9.962;2023-02-24T08:30:31;3.00;99.90
4749;DHT22;2388;53.582;9.962;2023-02-24T08:33:03;3.10;99.90
4749;DHT22;2388;53.582;9.962;2023-02-24T08:35:31;3.20;99.90
4749;DHT22;2388;53.582;9.962;2023-02-24T08:38:06;3.10;99.90
4749;DHT22;2388;53.582;9.962;2023-02-24T08:40:38;3.10;99.90
4749;DHT22;2388;53.582;9.962;2023-02-24T08:48:56;3.20;99.90
4749;DHT22;2388;53.582;9.962;2023-02-24T08:53:55;3.50;99.90
4749;DHT22;2388;53.582;9.962;2023-02-24T08:56:26;3.40;99.90
4749;DHT22;2388;53.582;9.962;2023-02-24T08:58:59;3.40;99.90
4749;DHT22;2388;53.582;9.962;2023-02-24T09:01:37;3.40;99.90
4749;DHT22;2388;53.582;9.962;2023-02-24T09:04:09;3.40;99.90
4749;DHT22;2388;53.582;9.962;2023-02-24T09:09:09;3.40;99.90
4749;DHT22;2388;53.582;9.962;2023-02-24T09:14:13;3.40;99.90
4749;DHT22;2388;53.582;9.962;2023-02-24T09:16:42;3.30;99.90
4749;DHT22;2388;53.582;9.962;2023-02-24T09:19:48;3.30;99.90
4749;DHT22;2388;53.582;9.962;2023-02-24T09:22:32;3.30;99.90
4749;DHT22;2388;53.582;9.962;2023-02-24T09:25:22;3.30;99.90
4749;DHT22;2388;53.582;9.962;2023-02-24T09:27:51;3.30;99.90
4749;DHT22;2388;53.582;9.962;2023-02-24T09:30:21;3.20;99.90
4749;DHT22;2388;53.582;9.962;2023-02-24T09:35:32;3.20;99.90
4749;DHT22;2388;53.582;9.962;2023-02-24T09:38:02;3.20;99.90
4749;DHT22;2388;53.582;9.962;2023-02-24T09:40:31;3.20;99.90
4749;DHT22;2388;53.582;9.962;2023-02-24T09:43:05;3.30;99.90
4749;DHT22;2388;53.582;9.962;2023-02-24T09:45:37;3.30;99.90
4749;DHT22;2388;53.582;9.962;2023-02-24T09:48:16;3.30;99.90
4749;DHT22;2388;53.582;9.962;2023-02-24T09:50:47;3.30;99.90
4749;DHT22;2388;53.582;9.962;2023-02-24T09:53:35;3.30;99.90
4749;DHT22;2388;53.582;9.962;2023-02-24T09:56:10;3.40;99.90
4749;DHT22;2388;53.582;9.962;2023-02-24T10:01:47;3.40;99.90
4749;DHT22;2388;53.582;9.962;2023-02-24T10:04:40;3.40;99.90
4749;DHT22;2388;53.582;9.962;2023-02-24T10:10:04;3.40;99.90
4749;DHT22;2388;53.582;9.962;2023-02-24T10:12:46;3.40;99.90
4749;DHT22;2388;53.582;9.962;2023-02-24T10:15:18;3.40;99.90
4749;DHT22;2388;53.582;9.962;2023-02-24T10:17:53;3.50;99.90
4749;DHT22;2388;53.582;9.962;2023-02-24T10:20:24;3.50;99.90
4749;DHT22;2388;53.582;9.962;2023-02-24T10:23:14;3.50;99.90
4749;DHT22;2388;53.582;9.962;2023-02-24T10:25:48;3.50;99.90
4749;DHT22;2388;53.582;9.962;2023-02-24T10:28:29;3.60;99.90
4749;DHT22;2388;53.582;9.962;2023-02-24T10:31:11;3.60;99.90
4749;DHT22;2388;53.582;9.962;2023-02-24T10:33:53;3.60;99.90
4749;DHT22;2388;53.582;9.962;2023-02-24T10:36:22;3.60;99.90
4749;DHT22;2388;53.582;9.962;2023-02-24T10:39:03;3.60;99.90
4749;DHT22;2388;53.582;9.962;2023-02-24T10:41:43;3.70;99.90
4749;DHT22;2388;53.582;9.962;2023-02-24T10:44:10;3.70;99.90
4749;DHT22;2388;53.582;9.962;2023-02-24T10:46:36;3.70;99.90
4749;DHT22;2388;53.582;9.962;2023-02-24T10:49:03;3.60;99.90
4749;DHT22;2388;53.582;9.962;2023-02-24T10:51:39;3.70;99.90
4749;DHT22;2388;53.582;9.962;2023-02-24T10:54:18;3.70;99.90
4749;DHT22;2388;53.582;9.962;2023-02-24T10:56:57;3.70;99.90
4749;DHT22;2388;53.582;9.962;2023-02-24T10:59:52;3.70;99.90
4749;DHT22;2388;53.582;9.962;2023-02-24T11:02:38;3.90;99.90
4749;DHT22;2388;53.582;9.962;2023-02-24T11:05:41;4.10;99.90
4749;DHT22;2388;53.582;9.962;2023-02-24T11:08:25;4.00;99.90
4749;DHT22;2388;53.582;9.962;2023-02-24T11:11:17;3.90;99.90
4749;DHT22;2388;53.582;9.962;2023-02-24T11:13:55;3.90;99.90
4749;DHT22;2388;53.582;9.962;2023-02-24T11:16:53;3.90;99.90
4749;DHT22;2388;53.582;9.962;2023-02-24T11:22:13;4.00;99.90
4749;DHT22;2388;53.582;9.962;2023-02-24T11:24:39;4.00;99.90
4749;DHT22;2388;53.582;9.962;2023-02-24T11:27:06;4.10;99.90
4749;DHT22;2388;53.582;9.962;2023-02-24T11:29:53;4.10;99.90
4749;DHT22;2388;53.582;9.962;2023-02-24T11:32:34;4.20;99.90
4749;DHT22;2388;53.582;9.962;2023-02-24T11:35:17;4.30;99.90
4749;DHT22;2388;53.582;9.962;2023-02-24T11:38:04;4.30;99.90
4749;DHT22;2388;53.582;9.962;2023-02-24T11:40:39;4.30;99.90
4749;DHT22;2388;53.582;9.962;2023-02-24T11:43:08;4.30;99.90
4749;DHT22;2388;53.582;9.962;2023-02-24T11:45:41;4.30;99.90
4749;DHT22;2388;53.582;9.962;2023-02-24T11:48:21;4.40;99.90
4749;DHT22;2388;53.582;9.962;2023-02-24T11:50:53;4.40;99.90
4749;DHT22;2388;53.582;9.962;2023-02-24T11:55:59;4.40;99.90
4749;DHT22;2388;53.582;9.962;2023-02-24T11:58:45;4.50;99.90
4749;DHT22;2388;53.582;9.962;2023-02-24T12:01:24;4.50;99.90
4749;DHT22;2388;53.582;9.962;2023-02-24T12:07:18;4.50;99.90
4749;DHT22;2388;53.582;9.962;2023-02-24T12:09:56;4.60;99.90
4749;DHT22;2388;53.582;9.962;2023-02-24T12:12:38;4.70;99.90
4749;DHT22;2388;53.582;9.962;2023-02-24T12:15:29;4.70;99.90
4749;DHT22;2388;53.582;9.962;2023-02-24T12:18:13;4.80;99.90
4749;DHT22;2388;53.582;9.962;2023-02-24T12:20:50;4.90;99.90
4749;DHT22;2388;53.582;9.962;2023-02-24T12:23:34;4.90;99.90
4749;DHT22;2388;53.582;9.962;2023-02-24T12:26:24;5.00;99.90
4749;DHT22;2388;53.582;9.962;2023-02-24T12:31:43;5.00;99.90
4749;DHT22;2388;53.582;9.962;2023-02-24T12:34:33;5.00;99.90
4749;DHT22;2388;53.582;9.962;2023-02-24T12:45:36;5.10;99.90
4749;DHT22;2388;53.582;9.962;2023-02-24T12:51:06;5.10;99.90
4749;DHT22;2388;53.582;9.962;2023-02-24T12:53:52;5.10;99.90
4749;DHT22;2388;53.582;9.962;2023-02-24T12:59:01;5.20;99.90
4749;DHT22;2388;53.582;9.962;2023-02-24T13:02:00;5.20;99.90
4749;DHT22;2388;53.582;9.962;2023-02-24T13:07:28;5.30;99.90
4749;DHT22;2388;53.582;9.962;2023-02-24T13:15:32;5.50;99.90
4749;DHT22;2388;53.582;9.962;2023-02-24T13:17:58;5.60;99.90
4749;DHT22;2388;53.582;9.962;2023-02-24T13:20:29;5.60;99.90
4749;DHT22;2388;53.582;9.962;2023-02-24T13:22:55;5.60;99.90
4749;DHT22;2388;53.582;9.962;2023-02-24T13:25:30;5.70;99.90
4749;DHT22;2388;53.582;9.962;2023-02-24T13:27:59;5.70;99.90
4749;DHT22;2388;53.582;9.962;2023-02-24T13:33:03;5.70;99.90
4749;DHT22;2388;53.582;9.962;2023-02-24T13:35:32;5.70;99.90
4749;DHT22;2388;53.582;9.962;2023-02-24T13:38:08;5.70;99.90
4749;DHT22;2388;53.582;9.962;2023-02-24T13:40:34;5.70;99.90
4749;DHT22;2388;53.582;9.962;2023-02-24T13:43:01;5.70;99.90
4749;DHT22;2388;53.582;9.962;2023-02-24T13:45:37;5.70;99.90
4749;DHT22;2388;53.582;9.962;2023-02-24T13:48:12;5.80;99.90
4749;DHT22;2388;53.582;9.962;2023-02-24T13:51:06;5.80;99.90
4749;DHT22;2388;53.582;9.962;2023-02-24T14:01:30;5.90;99.90
4749;DHT22;2388;53.582;9.962;2023-02-24T14:04:05;6.00;99.90
4749;DHT22;2388;53.582;9.962;2023-02-24T14:06:36;6.10;99.90
4749;DHT22;2388;53.582;9.962;2023-02-24T14:09:04;6.10;99.90
4749;DHT22;2388;53.582;9.962;2023-02-24T14:11:34;6.40;99.90
4749;DHT22;2388;53.582;9.962;2023-02-24T14:14:00;6.70;99.90
4749;DHT22;2388;53.582;9.962;2023-02-24T14:16:29;7.10;99.90
4749;DHT22;2388;53.582;9.962;2023-02-24T14:18:58;7.30;99.90
4749;DHT22;2388;53.582;9.962;2023-02-24T14:21:28;7.50;99.90
4749;DHT22;2388;53.582;9.962;2023-02-24T14:23:58;7.70;99.90
4749;DHT22;2388;53.582;9.962;2023-02-24T14:26:25;7.80;99.90
4749;DHT22;2388;53.582;9.962;2023-02-24T14:29:00;7.90;99.90
4749;DHT22;2388;53.582;9.962;2023-02-24T14:31:27;7.90;99.90
4749;DHT22;2388;53.582;9.962;2023-02-24T14:33:59;7.90;99.90
4749;DHT22;2388;53.582;9.962;2023-02-24T14:36:28;7.90;99.90
4749;DHT22;2388;53.582;9.962;2023-02-24T14:39:07;7.90;99.90
4749;DHT22;2388;53.582;9.962;2023-02-24T14:41:34;7.80;99.90
4749;DHT22;2388;53.582;9.962;2023-02-24T14:44:39;7.80;99.90
4749;DHT22;2388;53.582;9.962;2023-02-24T14:46:58;7.80;99.90
4749;DHT22;2388;53.582;9.962;2023-02-24T14:49:30;7.70;99.90
4749;DHT22;2388;53.582;9.962;2023-02-24T14:57:21;7.30;99.90
4749;DHT22;2388;53.582;9.962;2023-02-24T14:59:51;7.30;99.90
4749;DHT22;2388;53.582;9.962;2023-02-24T15:02:21;7.30;99.90
4749;DHT22;2388;53.582;9.962;2023-02-24T15:04:48;7.30;99.90
4749;DHT22;2388;53.582;9.962;2023-02-24T15:07:20;7.20;99.90
4749;DHT22;2388;53.582;9.962;2023-02-24T15:09:47;7.20;99.90
4749;DHT22;2388;53.582;9.962;2023-02-24T15:14:50;7.00;99.90
4749;DHT22;2388;53.582;9.962;2023-02-24T15:17:19;7.00;99.90
4749;DHT22;2388;53.582;9.962;2023-02-24T15:19:45;7.00;99.90
4749;DHT22;2388;53.582;9.962;2023-02-24T15:24:46;6.90;99.90
4749;DHT22;2388;53.582;9.962;2023-02-24T15:29:41;6.80;99.90
4749;DHT22;2388;53.582;9.962;2023-02-24T15:32:18;6.80;99.90
4749;DHT22;2388;53.582;9.962;2023-02-24T15:34:46;6.80;99.90
4749;DHT22;2388;53.582;9.962;2023-02-24T15:37:19;6.80;99.90
4749;DHT22;2388;53.582;9.962;2023-02-24T15:39:47;6.80;99.90
4749;DHT22;2388;53.582;9.962;2023-02-24T15:42:24;6.80;99.90
4749;DHT22;2388;53.582;9.962;2023-02-24T15:44:56;6.80;99.90
4749;DHT22;2388;53.582;9.962;2023-02-24T15:47:26;6.90;99.90
4749;DHT22;2388;53.582;9.962;2023-02-24T15:49:52;6.80;99.90
4749;DHT22;2388;53.582;9.962;2023-02-24T15:52:21;6.80;99.90
4749;DHT22;2388;53.582;9.962;2023-02-24T15:54:47;6.80;99.90
4749;DHT22;2388;53.582;9.962;2023-02-24T15:57:15;6.80;99.90
4749;DHT22;2388;53.582;9.962;2023-02-24T15:59:41;6.80;99.90
4749;DHT22;2388;53.582;9.962;2023-02-24T16:02:16;6.80;99.90
4749;DHT22;2388;53.582;9.962;2023-02-24T16:04:42;6.80;99.90
4749;DHT22;2388;53.582;9.962;2023-02-24T16:07:29;6.80;99.90
4749;DHT22;2388;53.582;9.962;2023-02-24T16:09:56;6.80;99.90
4749;DHT22;2388;53.582;9.962;2023-02-24T16:12:34;6.80;99.90
4749;DHT22;2388;53.582;9.962;2023-02-24T16:15:02;6.70;99.90
4749;DHT22;2388;53.582;9.962;2023-02-24T16:17:37;6.70;99.90
4749;DHT22;2388;53.582;9.962;2023-02-24T16:20:15;6.70;99.90
4749;DHT22;2388;53.582;9.962;2023-02-24T16:22:41;6.70;99.90
4749;DHT22;2388;53.582;9.962;2023-02-24T16:25:06;6.70;99.90
4749;DHT22;2388;53.582;9.962;2023-02-24T16:27:32;6.70;99.90
4749;DHT22;2388;53.582;9.962;2023-02-24T16:29:59;6.70;99.90
4749;DHT22;2388;53.582;9.962;2023-02-24T16:32:25;6.70;99.90
4749;DHT22;2388;53.582;9.962;2023-02-24T16:34:53;6.70;99.90
4749;DHT22;2388;53.582;9.962;2023-02-24T16:37:25;6.70;99.90
4749;DHT22;2388;53.582;9.962;2023-02-24T16:39:51;6.70;99.90
4749;DHT22;2388;53.582;9.962;2023-02-24T16:42:17;6.60;99.90
4749;DHT22;2388;53.582;9.962;2023-02-24T16:44:43;6.60;99.90
4749;DHT22;2388;53.582;9.962;2023-02-24T16:47:14;6.50;99.90
4749;DHT22;2388;53.582;9.962;2023-02-24T16:49:40;6.50;99.90
4749;DHT22;2388;53.582;9.962;2023-02-24T16:52:06;6.50;99.90
4749;DHT22;2388;53.582;9.962;2023-02-24T16:54:31;6.50;99.90
4749;DHT22;2388;53.582;9.962;2023-02-24T16:56:57;6.50;99.90
4749;DHT22;2388;53.582;9.962;2023-02-24T16:59:23;6.40;99.90
4749;DHT22;2388;53.582;9.962;2023-02-24T17:01:51;6.40;99.90
4749;DHT22;2388;53.582;9.962;2023-02-24T17:04:17;6.40;99.90
4749;DHT22;2388;53.582;9.962;2023-02-24T17:06:42;6.40;99.90
4749;DHT22;2388;53.582;9.962;2023-02-24T17:09:08;6.40;99.90
4749;DHT22;2388;53.582;9.962;2023-02-24T17:11:33;6.30;99.90
4749;DHT22;2388;53.582;9.962;2023-02-24T17:13:59;6.40;99.90
4749;DHT22;2388;53.582;9.962;2023-02-24T17:16:24;6.30;99.90
4749;DHT22;2388;53.582;9.962;2023-02-24T17:18:50;6.30;99.90
4749;DHT22;2388;53.582;9.962;2023-02-24T17:21:16;6.30;99.90
4749;DHT22;2388;53.582;9.962;2023-02-24T17:23:42;6.30;99.90
4749;DHT22;2388;53.582;9.962;2023-02-24T17:26:11;6.30;99.90
4749;DHT22;2388;53.582;9.962;2023-02-24T17:28:37;6.30;99.90
4749;DHT22;2388;53.582;9.962;2023-02-24T17:31:03;6.30;99.90
4749;DHT22;2388;53.582;9.962;2023-02-24T17:33:29;6.30;99.90
4749;DHT22;2388;53.582;9.962;2023-02-24T17:35:54;6.20;99.90
4749;DHT22;2388;53.582;9.962;2023-02-24T17:38:20;6.20;99.90
4749;DHT22;2388;53.582;9.962;2023-02-24T17:40:47;6.10;99.90
4749;DHT22;2388;53.582;9.962;2023-02-24T17:43:13;6.20;99.90
4749;DHT22;2388;53.582;9.962;2023-02-24T17:45:43;6.20;99.90
4749;DHT22;2388;53.582;9.962;2023-02-24T17:48:10;6.20;99.90
4749;DHT22;2388;53.582;9.962;2023-02-24T17:50:36;6.10;99.90
4749;DHT22;2388;53.582;9.962;2023-02-24T17:53:02;6.10;99.90
4749;DHT22;2388;53.582;9.962;2023-02-24T17:55:28;6.10;99.90
4749;DHT22;2388;53.582;9.962;2023-02-24T17:57:53;6.10;99.90
4749;DHT22;2388;53.582;9.962;2023-02-24T18:00:19;6.10;99.90
4749;DHT22;2388;53.582;9.962;2023-02-24T18:02:44;6.10;99.90
4749;DHT22;2388;53.582;9.962;2023-02-24T18:05:10;6.10;99.90
4749;DHT22;2388;53.582;9.962;2023-02-24T18:07:36;6.10;99.90
4749;DHT22;2388;53.582;9.962;2023-02-24T18:10:02;6.10;99.90
4749;DHT22;2388;53.582;9.962;2023-02-24T18:12:29;6.10;99.90
4749;DHT22;2388;53.582;9.962;2023-02-24T18:14:54;6.00;99.90
4749;DHT22;2388;53.582;9.962;2023-02-24T18:17:20;5.90;99.90
4749;DHT22;2388;53.582;9.962;2023-02-24T18:19:46;5.90;99.90
4749;DHT22;2388;53.582;9.962;2023-02-24T18:22:12;5.90;99.90
4749;DHT22;2388;53.582;9.962;2023-02-24T18:24:37;5.90;99.90
4749;DHT22;2388;53.582;9.962;2023-02-24T18:27:04;5.90;99.90
4749;DHT22;2388;53.582;9.962;2023-02-24T18:29:30;5.80;99.90
4749;DHT22;2388;53.582;9.962;2023-02-24T18:31:56;5.80;99.90